createdAt,value
2023-01-05T00:02:41.697Z,99969.25
2023-01-05T00:06:43.884Z,99966.25
2023-01-05T00:11:03.944Z,99973.72
2023-01-05T00:15:24.894Z,99963.25
2023-01-05T00:19:45.298Z,99965.78
2023-01-05T00:23:46.830Z,99957.25
2023-01-05T00:27:51.598Z,99934.13
2023-01-05T00:31:53.284Z,99936.88
2023-01-05T00:35:56.141Z,99937.09
2023-01-05T00:39:57.796Z,99932.03
2023-01-05T00:43:59.373Z,99942.47
2023-01-05T00:48:00.989Z,99933.69
2023-01-05T00:52:02.784Z,99927.94
2023-01-05T00:56:04.640Z,99935.31
2023-01-05T01:00:11.265Z,99925.19
2023-01-05T01:04:14.035Z,99914.16
2023-01-05T01:08:16.513Z,99885.75
2023-01-05T01:12:18.053Z,99883.25
2023-01-05T01:16:19.771Z,99898.94
2023-01-05T01:20:21.385Z,99903.19
2023-01-05T01:24:27.846Z,99914.91
2023-01-05T01:28:29.421Z,99923.75
2023-01-05T01:32:31.034Z,99939.06
2023-01-05T01:36:32.705Z,99954.59
2023-01-05T01:40:42.138Z,99970.91
2023-01-05T01:44:49.310Z,99991.31
2023-01-05T01:49:03.718Z,100000.25
2023-01-05T01:53:19.717Z,99997.06
2023-01-05T01:57:22.400Z,100011.25
2023-01-05T02:01:24.202Z,99994.66
2023-01-05T02:05:31.453Z,99989.69
2023-01-05T02:09:33.333Z,99994.97
2023-01-05T02:13:37.550Z,99989.69
2023-01-05T02:18:02.974Z,99982.13
2023-01-05T02:22:50.464Z,99978.53
2023-01-05T02:26:58.444Z,99970.97
2023-01-05T02:31:02.943Z,99975.91
2023-01-05T02:35:28.189Z,99970.38
2023-01-05T02:39:46.011Z,99966.81
2023-01-05T02:43:48.046Z,99969.56
2023-01-05T02:47:50.003Z,99977.00
2023-01-05T02:51:55.781Z,99983.13
2023-01-05T02:56:02.182Z,99985.38
2023-01-05T03:00:10.570Z,99992.88
2023-01-05T03:04:21.005Z,99987.97
2023-01-05T03:08:32.111Z,99993.16
2023-01-05T03:12:55.517Z,99999.00
2023-01-05T03:17:01.810Z,99995.97
2023-01-05T03:21:04.495Z,100003.41
2023-01-05T03:25:31.035Z,100011.97
2023-01-05T03:29:53.791Z,100025.31
2023-01-05T03:34:39.522Z,100021.78
2023-01-05T03:38:47.327Z,100013.06
2023-01-05T03:42:49.928Z,100012.63
2023-01-05T03:46:52.226Z,100013.13
2023-01-05T03:50:54.556Z,100030.31
2023-01-05T03:54:58.334Z,100040.75
2023-01-05T03:59:00.032Z,100059.91
2023-01-05T04:03:01.883Z,100072.25
2023-01-05T04:07:04.123Z,100081.13
2023-01-05T04:11:16.353Z,100102.84
2023-01-05T04:15:22.879Z,100086.78
2023-01-05T04:19:27.406Z,100105.31
2023-01-05T04:23:30.860Z,100111.81
2023-01-05T04:27:32.559Z,100098.28
2023-01-05T04:31:34.847Z,100098.44
2023-01-05T04:35:36.784Z,100092.19
2023-01-05T04:39:38.472Z,100096.03
2023-01-05T04:43:40.954Z,100095.78
2023-01-05T04:47:42.692Z,100102.59
2023-01-05T04:51:46.072Z,100109.56
2023-01-05T04:55:48.536Z,100101.19
2023-01-05T04:59:50.937Z,100107.53
2023-01-05T05:03:52.922Z,100111.75
2023-01-05T05:07:56.830Z,100121.66
2023-01-05T05:12:01.930Z,100119.53
2023-01-05T05:16:06.091Z,100126.91
2023-01-05T05:20:09.905Z,100130.16
2023-01-05T05:24:12.206Z,100137.94
2023-01-05T05:28:18.332Z,100141.91
2023-01-05T05:32:20.082Z,100144.66
2023-01-05T05:36:22.654Z,100148.72
2023-01-05T05:40:26.291Z,100146.91
2023-01-05T05:44:27.939Z,100146.44
2023-01-05T05:48:29.529Z,100150.25
2023-01-05T05:52:31.163Z,100148.59
2023-01-05T05:56:33.079Z,100160.69
2023-01-05T06:00:34.817Z,100153.50
2023-01-05T06:04:36.433Z,100162.63
2023-01-05T06:08:38.465Z,100166.22
2023-01-05T06:12:40.111Z,100165.13
2023-01-05T06:16:43.183Z,100170.16
2023-01-05T06:20:45.037Z,100167.16
2023-01-05T06:24:47.551Z,100168.59
2023-01-05T06:28:49.249Z,100183.44
2023-01-05T06:32:52.564Z,100173.16
2023-01-05T06:36:59.297Z,100176.88
2023-01-05T06:41:05.531Z,100179.63
2023-01-05T06:45:09.042Z,100186.56
2023-01-05T06:49:12.401Z,100190.06
2023-01-05T06:53:14.443Z,100190.88
2023-01-05T06:57:16.047Z,100196.03
2023-01-05T07:01:18.565Z,100201.91
2023-01-05T07:05:21.040Z,100204.91
2023-01-05T07:09:22.595Z,100205.97
2023-01-05T07:13:24.373Z,100212.56
2023-01-05T07:17:26.234Z,100210.44
2023-01-05T07:21:27.764Z,100217.34
2023-01-05T07:25:31.850Z,100215.47
2023-01-05T07:29:34.059Z,100230.31
2023-01-05T07:33:41.008Z,100226.72
2023-01-05T07:37:46.073Z,100233.78
2023-01-05T07:41:48.610Z,100243.94
2023-01-05T07:45:52.024Z,100240.13
2023-01-05T07:49:53.675Z,100245.66
2023-01-05T07:53:56.151Z,100244.34
2023-01-05T07:57:57.775Z,100252.59
2023-01-05T08:02:01.773Z,100260.88
2023-01-05T08:06:12.947Z,100258.94
2023-01-05T08:10:29.437Z,100269.38
2023-01-05T08:14:31.032Z,100285.91
2023-01-05T08:18:32.552Z,100287.13
2023-01-05T08:22:36.481Z,100290.47
2023-01-05T08:26:39.897Z,100303.28
2023-01-05T08:30:43.709Z,100297.28
2023-01-05T08:34:47.953Z,100301.84
2023-01-05T08:38:55.087Z,100304.25
2023-01-05T08:42:57.697Z,100309.41
2023-01-05T08:47:01.024Z,100297.88
2023-01-05T08:51:07.522Z,100300.16
2023-01-05T08:55:09.332Z,100296.56
2023-01-05T08:59:13.787Z,100305.81
2023-01-05T09:03:15.406Z,100322.09
2023-01-05T09:07:21.037Z,100312.25
2023-01-05T09:11:28.028Z,100318.97
2023-01-05T09:15:36.083Z,100321.34
2023-01-05T09:19:39.073Z,100321.22
2023-01-05T09:23:41.409Z,100332.59
2023-01-05T09:27:43.023Z,100333.88
2023-01-05T09:31:46.062Z,100344.31
2023-01-05T09:35:57.224Z,100341.31
2023-01-05T09:39:59.129Z,100340.00
2023-01-05T09:44:04.622Z,100350.66
2023-01-05T09:48:13.000Z,100356.06
2023-01-05T09:52:20.787Z,100350.16
2023-01-05T09:57:07.464Z,100353.34
2023-01-05T10:01:14.369Z,100354.03
2023-01-05T10:05:21.809Z,100350.63
2023-01-05T10:09:35.171Z,100358.84
2023-01-05T10:13:54.958Z,100345.97
2023-01-05T10:18:02.777Z,100358.03
2023-01-05T10:22:19.148Z,100366.41
2023-01-05T10:26:58.150Z,100362.72
2023-01-05T10:31:02.702Z,100363.41
2023-01-05T10:35:58.852Z,100366.69
2023-01-05T10:40:21.150Z,100366.84
2023-01-05T10:44:37.009Z,100378.59
2023-01-05T10:48:39.850Z,100378.19
2023-01-05T10:52:42.009Z,100379.69
2023-01-05T10:56:43.526Z,100369.81
2023-01-05T11:00:46.028Z,100376.19
2023-01-05T11:04:49.264Z,100368.22
2023-01-05T11:08:52.020Z,100376.66
2023-01-05T11:13:02.999Z,100378.44
2023-01-05T11:17:07.773Z,100380.84
2023-01-05T11:21:43.401Z,100380.13
2023-01-05T11:25:46.741Z,100370.44
2023-01-05T11:30:20.987Z,100385.28
2023-01-05T11:34:43.072Z,100382.69
2023-01-05T11:38:53.982Z,100385.91
2023-01-05T11:42:55.738Z,100381.28
2023-01-05T11:46:57.432Z,100378.66
2023-01-05T11:50:59.837Z,100382.34
2023-01-05T11:55:19.900Z,100391.16
2023-01-05T11:59:30.888Z,100379.88
2023-01-05T12:03:59.078Z,100386.84
2023-01-05T12:08:10.450Z,100385.09
2023-01-05T12:12:27.892Z,100383.75
2023-01-05T12:16:48.033Z,100384.38
2023-01-05T12:21:00.110Z,100398.13
2023-01-05T12:25:08.461Z,100385.22
2023-01-05T12:30:43.661Z,100392.41
2023-01-05T12:34:31.975Z,100381.00
2023-01-05T12:39:08.115Z,100393.03
2023-01-05T12:43:23.516Z,100389.38
2023-01-05T12:47:44.999Z,100388.97
2023-01-05T12:51:53.652Z,100394.53
2023-01-05T12:55:58.356Z,100399.13
2023-01-05T13:00:11.987Z,100400.16
2023-01-05T13:04:42.891Z,100399.22
2023-01-05T13:08:59.672Z,100390.59
2023-01-05T13:13:06.478Z,100400.22
2023-01-05T13:17:26.156Z,100395.34
2023-01-05T13:21:37.945Z,100394.00
2023-01-05T13:25:54.989Z,100403.69
2023-01-05T13:30:01.510Z,100410.31
2023-01-05T13:34:46.525Z,100403.41
2023-01-05T13:39:13.379Z,100413.69
2023-01-05T13:43:33.053Z,100409.16
2023-01-05T13:47:56.670Z,100408.72
2023-01-05T13:52:07.489Z,100410.72
2023-01-05T13:56:27.616Z,100413.41
2023-01-05T14:00:33.719Z,100415.28
2023-01-05T14:04:35.488Z,100409.75
2023-01-05T14:08:39.856Z,100410.72
2023-01-05T14:12:51.332Z,100405.94
2023-01-05T14:16:54.056Z,100410.50
2023-01-05T14:20:57.249Z,100427.22
2023-01-05T14:24:59.133Z,100423.41
2023-01-05T14:29:02.359Z,100424.75
2023-01-05T14:33:06.395Z,100418.28
2023-01-05T14:37:22.686Z,100426.09
2023-01-05T14:41:29.824Z,100428.72
2023-01-05T14:45:35.063Z,100435.31
2023-01-05T14:49:52.592Z,100440.72
2023-01-05T14:54:03.908Z,100449.34
2023-01-05T14:58:13.030Z,100440.84
2023-01-05T15:02:26.429Z,100439.28
2023-01-05T15:06:49.097Z,100450.31
2023-01-05T15:11:31.015Z,100458.59
2023-01-05T15:15:47.283Z,100455.22
2023-01-05T15:20:23.944Z,100448.38
2023-01-05T15:25:01.241Z,100460.66
2023-01-05T15:29:18.970Z,100455.97
2023-01-05T15:33:40.707Z,100455.97
2023-01-05T15:37:43.672Z,100454.50
2023-01-05T15:41:45.499Z,100458.38
2023-01-05T15:45:53.794Z,100461.97
2023-01-05T15:50:01.748Z,100442.03
2023-01-05T15:54:05.613Z,100444.56
2023-01-05T15:58:15.504Z,100446.72
2023-01-05T16:02:22.931Z,100451.88
2023-01-05T16:06:28.029Z,100448.16
2023-01-05T16:10:40.038Z,100449.34
2023-01-05T16:14:45.398Z,100465.31
2023-01-05T16:18:54.034Z,100459.91
2023-01-05T16:23:04.717Z,100460.97
2023-01-05T16:27:12.954Z,100462.28
2023-01-05T16:31:28.369Z,100463.13
2023-01-05T16:35:50.682Z,100469.25
2023-01-05T16:40:01.480Z,100480.91
2023-01-05T16:44:03.516Z,100470.94
2023-01-05T16:48:40.322Z,100460.28
2023-01-05T16:52:46.676Z,100459.19
2023-01-05T16:57:01.754Z,100463.75
2023-01-05T17:01:20.965Z,100461.94
2023-01-05T17:05:36.043Z,100461.78
2023-01-05T17:09:44.936Z,100462.75
2023-01-05T17:13:53.956Z,100458.44
2023-01-05T17:17:57.764Z,100453.63
2023-01-05T17:22:01.883Z,100456.13
2023-01-05T17:26:09.839Z,100458.84
2023-01-05T17:30:21.423Z,100463.22
2023-01-05T17:34:23.582Z,100460.09
2023-01-05T17:38:25.382Z,100464.31
2023-01-05T17:42:45.322Z,100461.44
2023-01-05T17:46:48.242Z,100454.88
2023-01-05T17:50:52.873Z,100461.75
2023-01-05T17:54:55.827Z,100460.47
2023-01-05T17:58:57.513Z,100466.13
2023-01-05T18:02:59.213Z,100461.94
2023-01-05T18:07:03.939Z,100463.75
2023-01-05T18:11:09.695Z,100460.50
2023-01-05T18:15:15.265Z,100464.09
2023-01-05T18:19:16.939Z,100456.44
2023-01-05T18:23:20.954Z,100457.63
2023-01-05T18:27:22.936Z,100453.53
2023-01-05T18:31:25.875Z,100444.78
2023-01-05T18:35:28.922Z,100448.03
2023-01-05T18:39:34.472Z,100445.06
2023-01-05T18:43:36.915Z,100444.78
2023-01-05T18:47:38.710Z,100445.53
2023-01-05T18:51:43.285Z,100437.59
2023-01-05T18:55:45.121Z,100435.69
2023-01-05T18:59:47.414Z,100442.16
2023-01-05T19:03:52.911Z,100437.47
2023-01-05T19:07:54.759Z,100432.78
2023-01-05T19:11:58.444Z,100429.81
2023-01-05T19:16:03.571Z,100444.19
2023-01-05T19:20:07.124Z,100429.66
2023-01-05T19:24:17.430Z,100433.38
2023-01-05T19:28:19.012Z,100439.53
2023-01-05T19:32:20.561Z,100433.75
2023-01-05T19:36:24.892Z,100443.59
2023-01-05T19:40:27.093Z,100451.53
2023-01-05T19:44:28.793Z,100447.53
2023-01-05T19:48:34.488Z,100446.69
2023-01-05T19:52:36.141Z,100442.22
2023-01-05T19:56:38.916Z,100441.88
2023-01-05T20:00:41.440Z,100448.06
2023-01-05T20:04:45.596Z,100437.88
2023-01-05T20:08:52.590Z,100430.69
2023-01-05T20:12:54.408Z,100422.66
2023-01-05T20:17:03.924Z,100424.56
2023-01-05T20:21:08.730Z,100423.84
2023-01-05T20:25:10.445Z,100422.53
2023-01-05T20:29:13.934Z,100424.47
2023-01-05T20:33:16.896Z,100418.94
2023-01-05T20:37:19.413Z,100421.44
2023-01-05T20:41:24.900Z,100418.84
2023-01-05T20:45:26.464Z,100418.84
2023-01-05T20:49:29.217Z,100419.56
2023-01-05T20:53:31.912Z,100424.94
2023-01-05T20:57:33.776Z,100411.78
2023-01-05T21:01:36.196Z,100407.72
2023-01-05T21:05:40.895Z,100420.06
2023-01-05T21:09:44.385Z,100409.66
2023-01-05T21:13:49.676Z,100420.56
2023-01-05T21:17:52.223Z,100415.19
2023-01-05T21:21:55.944Z,100413.38
2023-01-05T21:26:07.054Z,100403.19
2023-01-05T21:30:12.272Z,100414.56
2023-01-05T21:34:15.055Z,100407.13
2023-01-05T21:38:16.552Z,100409.88
2023-01-05T21:42:36.806Z,100404.72
2023-01-05T21:46:40.693Z,100400.41
2023-01-05T21:51:00.980Z,100396.81
2023-01-05T21:55:31.885Z,100387.09
2023-01-05T21:59:33.753Z,100399.09
2023-01-05T22:03:38.091Z,100393.09
2023-01-05T22:07:39.695Z,100383.25
2023-01-05T22:11:41.403Z,100384.81
2023-01-05T22:15:44.611Z,100376.63
2023-01-05T22:19:46.310Z,100379.97
2023-01-05T22:23:48.386Z,100386.34
2023-01-05T22:27:49.942Z,100376.50
2023-01-05T22:31:51.834Z,100377.00
2023-01-05T22:35:53.540Z,100371.47
2023-01-05T22:39:55.149Z,100380.81
2023-01-05T22:43:58.189Z,100381.44
2023-01-05T22:47:59.932Z,100371.47
2023-01-05T22:52:01.697Z,100378.19
2023-01-05T22:56:03.548Z,100379.34
2023-01-05T23:00:09.579Z,100378.28
2023-01-05T23:04:12.203Z,100369.06
2023-01-05T23:08:14.050Z,100369.63
2023-01-05T23:12:15.627Z,100361.13
2023-01-05T23:16:17.976Z,100348.28
2023-01-05T23:20:19.654Z,100342.50
2023-01-05T23:24:21.415Z,100337.34
2023-01-05T23:28:25.624Z,100335.16
2023-01-05T23:32:27.275Z,100331.56
2023-01-05T23:36:28.809Z,100326.88
2023-01-05T23:40:31.605Z,100329.28
2023-01-05T23:44:33.153Z,100325.19
2023-01-05T23:48:36.110Z,100326.63
2023-01-05T23:52:37.686Z,100318.34
2023-01-05T23:56:39.424Z,100321.34
